createdAt,value
2019-04-13T00:01:12.463Z,99.90
2019-04-13T00:06:44.587Z,99.90
2019-04-13T00:11:58.566Z,99.90
2019-04-13T00:16:56.452Z,99.90
2019-04-13T00:21:55.605Z,99.90
2019-04-13T00:26:50.218Z,99.90
2019-04-13T00:31:48.207Z,99.90
2019-04-13T00:36:45.135Z,99.90
2019-04-13T00:41:43.930Z,99.90
2019-04-13T00:46:40.098Z,99.90
2019-04-13T00:51:43.816Z,99.90
2019-04-13T00:56:38.106Z,99.90
2019-04-13T01:01:40.723Z,99.90
2019-04-13T01:06:39.717Z,99.90
2019-04-13T01:11:41.444Z,99.90
2019-04-13T01:16:36.016Z,99.90
2019-04-13T01:21:44.480Z,99.90
2019-04-13T01:26:40.452Z,99.90
2019-04-13T01:31:38.496Z,99.90
2019-04-13T01:36:34.316Z,99.90
2019-04-13T01:41:30.541Z,99.90
2019-04-13T01:46:24.871Z,99.90
2019-04-13T01:51:24.878Z,99.90
2019-04-13T01:56:20.694Z,99.90
2019-04-13T02:01:19.524Z,99.90
2019-04-13T02:06:16.644Z,99.90
2019-04-13T02:11:31.240Z,99.90
2019-04-13T02:16:29.159Z,99.90
2019-04-13T02:21:24.882Z,99.90
2019-04-13T02:26:20.244Z,99.90
2019-04-13T02:31:16.815Z,99.90
2019-04-13T02:36:12.238Z,99.90
2019-04-13T02:41:11.550Z,99.90
2019-04-13T02:46:12.315Z,99.90
2019-04-13T02:51:10.997Z,99.90
2019-04-13T02:56:10.148Z,99.90
2019-04-13T03:01:06.191Z,99.90
2019-04-13T03:06:06.303Z,99.90
2019-04-13T03:10:58.547Z,99.90
2019-04-13T03:15:54.246Z,99.90
2019-04-13T03:20:51.832Z,99.90
2019-04-13T03:25:47.649Z,99.90
2019-04-13T03:30:44.397Z,99.90
2019-04-13T03:35:58.491Z,99.90
2019-04-13T03:40:45.287Z,99.90
2019-04-13T03:45:43.060Z,99.90
2019-04-13T03:50:39.219Z,99.90
2019-04-13T03:55:41.809Z,99.90
2019-04-13T04:00:36.311Z,99.90
2019-04-13T04:05:31.093Z,99.90
2019-04-13T04:10:26.439Z,99.90
2019-04-13T04:15:25.323Z,99.90
2019-04-13T04:20:21.388Z,99.90
2019-04-13T04:40:00.830Z,99.90
2019-04-13T04:44:55.627Z,99.90
2019-04-13T04:49:52.090Z,99.90
2019-04-13T04:54:48.451Z,99.90
2019-04-13T04:59:43.169Z,99.90
2019-04-13T05:04:37.448Z,99.90
2019-04-13T05:09:33.999Z,99.90
2019-04-13T05:14:34.960Z,99.90
2019-04-13T05:19:32.350Z,99.90
2019-04-13T05:24:41.759Z,99.90
2019-04-13T05:29:32.182Z,99.90
2019-04-13T05:34:26.846Z,99.90
2019-04-13T05:44:25.019Z,99.90
2019-04-13T05:49:22.411Z,99.90
2019-04-13T05:54:27.792Z,99.90
2019-04-13T05:59:30.253Z,99.90
2019-04-13T06:04:28.732Z,99.90
2019-04-13T06:09:27.060Z,99.90
2019-04-13T06:14:24.314Z,99.90
2019-04-13T06:19:22.874Z,99.90
2019-04-13T06:24:21.478Z,99.90
2019-04-13T06:29:21.145Z,99.40
2019-04-13T06:34:18.208Z,99.30
2019-04-13T06:39:15.633Z,98.60
2019-04-13T06:44:11.090Z,97.60
2019-04-13T06:49:32.965Z,95.80
2019-04-13T06:54:31.200Z,95.50
2019-04-13T06:59:28.931Z,93.10
2019-04-13T07:04:23.038Z,91.40
2019-04-13T07:09:26.061Z,91.40
2019-04-13T07:14:21.814Z,90.90
2019-04-13T07:19:20.737Z,87.70
2019-04-13T07:24:18.580Z,86.20
2019-04-13T07:29:13.124Z,79.30
2019-04-13T07:34:07.993Z,76.50
2019-04-13T07:39:03.091Z,74.90
2019-04-13T07:44:00.569Z,72.30
2019-04-13T07:49:17.523Z,72.00
2019-04-13T07:54:20.306Z,70.30
2019-04-13T07:59:12.198Z,62.40
2019-04-13T08:04:09.358Z,59.80
2019-04-13T08:09:10.133Z,57.20
2019-04-13T08:14:07.256Z,59.40
2019-04-13T08:19:18.977Z,58.60
2019-04-13T08:24:18.238Z,59.50
2019-04-13T08:29:21.208Z,55.70
2019-04-13T08:34:18.026Z,54.70
2019-04-13T08:39:18.837Z,54.70
2019-04-13T08:44:18.421Z,55.20
2019-04-13T08:49:10.321Z,54.70
2019-04-13T08:54:08.892Z,53.30
2019-04-13T08:59:06.201Z,52.70
2019-04-13T09:04:09.400Z,48.30
2019-04-13T09:09:12.071Z,48.50
2019-04-13T09:14:17.623Z,48.50
2019-04-13T09:19:25.025Z,47.70
2019-04-13T09:24:26.185Z,47.40
2019-04-13T09:29:23.132Z,43.70
2019-04-13T09:34:30.517Z,44.50
2019-04-13T09:39:26.237Z,45.20
2019-04-13T09:44:31.540Z,41.00
2019-04-13T09:49:28.069Z,40.50
2019-04-13T09:54:29.828Z,40.40
2019-04-13T09:59:29.313Z,43.00
2019-04-13T10:04:27.170Z,42.10
2019-04-13T10:09:28.862Z,40.20
2019-04-13T10:14:36.327Z,39.10
2019-04-13T10:19:35.008Z,39.30
2019-04-13T10:24:40.006Z,37.50
2019-04-13T10:29:39.076Z,39.90
2019-04-13T10:34:36.249Z,39.30
2019-04-13T10:39:38.811Z,40.20
2019-04-13T10:44:51.405Z,41.00
2019-04-13T10:50:07.498Z,41.40
2019-04-13T10:55:07.358Z,42.80
2019-04-13T11:00:06.168Z,43.30
2019-04-13T11:05:05.565Z,43.40
2019-04-13T11:10:01.537Z,44.30
2019-04-13T11:15:01.556Z,44.10
2019-04-13T11:20:00.867Z,45.20
2019-04-13T11:24:59.851Z,44.60
2019-04-13T11:29:59.307Z,44.40
2019-04-13T11:34:56.089Z,44.30
2019-04-13T11:39:56.834Z,44.60
2019-04-13T11:45:10.305Z,46.30
2019-04-13T11:50:15.511Z,46.60
2019-04-13T11:55:23.559Z,47.20
2019-04-13T12:05:36.074Z,47.00
2019-04-13T12:10:50.210Z,46.90
2019-04-13T12:15:56.841Z,48.20
2019-04-13T12:20:57.914Z,49.10
2019-04-13T12:26:01.433Z,50.30
2019-04-13T12:30:56.502Z,50.90
2019-04-13T12:35:55.377Z,52.00
2019-04-13T12:40:52.316Z,52.50
2019-04-13T12:45:49.726Z,53.50
2019-04-13T12:50:48.149Z,53.70
2019-04-13T12:55:43.826Z,56.00
2019-04-13T13:00:51.724Z,57.30
2019-04-13T13:05:54.395Z,55.70
2019-04-13T13:10:49.954Z,53.70
2019-04-13T13:15:51.227Z,53.10
2019-04-13T13:20:54.781Z,54.60
2019-04-13T13:25:51.877Z,54.30
2019-04-13T13:30:48.415Z,53.40
2019-04-13T13:35:48.257Z,52.90
2019-04-13T13:40:42.786Z,53.70
2019-04-13T13:45:41.031Z,53.70
2019-04-13T13:50:39.377Z,54.00
2019-04-13T13:55:35.888Z,55.80
2019-04-13T14:00:41.210Z,56.80
2019-04-13T14:05:38.583Z,57.50
2019-04-13T14:10:42.887Z,57.90
2019-04-13T14:15:32.987Z,57.60
2019-04-13T14:20:28.249Z,58.50
2019-04-13T14:25:29.059Z,58.20
2019-04-13T14:30:31.577Z,58.10
2019-04-13T14:35:29.351Z,58.70
2019-04-13T14:40:33.812Z,60.20
2019-04-13T14:45:38.506Z,61.70
2019-04-13T14:50:36.037Z,62.40
2019-04-13T14:55:33.173Z,64.90
2019-04-13T15:00:30.264Z,67.80
2019-04-13T15:05:25.465Z,68.90
2019-04-13T15:10:20.767Z,69.60
2019-04-13T15:15:15.618Z,69.20
2019-04-13T15:20:16.750Z,70.90
2019-04-13T15:25:10.358Z,71.10
2019-04-13T15:30:14.582Z,71.30
2019-04-13T15:35:13.682Z,73.70
2019-04-13T15:40:15.322Z,74.00
2019-04-13T15:45:12.204Z,72.70
2019-04-13T15:50:11.656Z,73.60
2019-04-13T15:55:22.934Z,73.30
2019-04-13T16:00:18.888Z,72.50
2019-04-13T16:05:24.607Z,72.60
2019-04-13T16:10:27.493Z,71.40
2019-04-13T16:15:25.078Z,71.70
2019-04-13T16:20:22.860Z,73.00
2019-04-13T16:25:20.693Z,71.30
2019-04-13T16:30:28.650Z,71.20
2019-04-13T16:35:53.959Z,71.70
2019-04-13T16:40:41.526Z,74.00
2019-04-13T16:45:53.393Z,73.00
2019-04-13T16:50:53.309Z,74.30
2019-04-13T16:55:58.056Z,75.20
2019-04-13T17:01:14.549Z,73.60
2019-04-13T17:06:19.076Z,72.40
2019-04-13T17:11:14.978Z,74.20
2019-04-13T17:16:15.482Z,74.20
2019-04-13T17:21:15.107Z,76.00
2019-04-13T17:26:33.744Z,75.90
2019-04-13T17:31:32.771Z,78.10
2019-04-13T17:36:31.277Z,79.40
2019-04-13T17:41:40.422Z,81.30
2019-04-13T17:46:52.938Z,83.20
2019-04-13T17:52:11.188Z,85.80
2019-04-13T17:57:20.511Z,88.20
2019-04-13T18:02:34.096Z,90.50
2019-04-13T18:07:37.489Z,91.30
2019-04-13T18:12:56.168Z,92.90
2019-04-13T18:17:55.049Z,93.90
2019-04-13T18:22:51.617Z,94.50
2019-04-13T18:27:50.878Z,95.00
2019-04-13T18:32:51.066Z,96.00
2019-04-13T18:37:49.632Z,96.80
2019-04-13T18:43:04.264Z,97.80
2019-04-13T18:47:56.345Z,98.70
2019-04-13T18:52:55.572Z,99.50
2019-04-13T18:58:03.356Z,99.90
2019-04-13T19:02:58.535Z,99.90
2019-04-13T19:07:53.310Z,99.90
2019-04-13T19:12:49.743Z,99.90
2019-04-13T19:17:48.541Z,99.90
2019-04-13T19:22:44.547Z,99.90
2019-04-13T19:27:48.623Z,99.90
2019-04-13T19:32:45.585Z,99.90
2019-04-13T19:37:45.504Z,99.90
2019-04-13T19:42:44.146Z,99.90
2019-04-13T19:47:43.538Z,99.90
2019-04-13T19:53:00.048Z,99.90
2019-04-13T19:57:59.768Z,99.90
2019-04-13T20:02:56.754Z,99.90
2019-04-13T20:07:53.280Z,99.90
2019-04-13T20:12:53.490Z,99.90
2019-04-13T20:17:56.915Z,99.90
2019-04-13T20:22:59.180Z,99.90
2019-04-13T20:27:56.308Z,99.90
2019-04-13T20:32:52.287Z,99.90
2019-04-13T20:37:53.356Z,99.90
2019-04-13T20:42:52.577Z,99.90
2019-04-13T20:47:47.920Z,99.90
2019-04-13T20:52:44.832Z,99.90
2019-04-13T20:57:45.669Z,99.90
2019-04-13T21:02:44.080Z,99.90
2019-04-13T21:07:44.736Z,99.90
2019-04-13T21:12:48.612Z,99.90
2019-04-13T21:17:44.445Z,99.90
2019-04-13T21:22:46.404Z,99.90
2019-04-13T21:27:44.453Z,99.90
2019-04-13T21:32:42.285Z,99.90
2019-04-13T21:37:44.384Z,99.90
2019-04-13T21:42:40.277Z,99.90
2019-04-13T21:47:44.809Z,99.90
2019-04-13T21:57:53.102Z,99.90
2019-04-13T22:02:48.548Z,99.90
2019-04-13T22:07:50.353Z,99.90
2019-04-13T22:12:48.171Z,99.90
2019-04-13T22:17:58.158Z,99.90
2019-04-13T22:22:56.018Z,99.90
2019-04-13T22:32:53.745Z,99.90
2019-04-13T22:38:02.367Z,99.90
2019-04-13T22:43:00.249Z,99.90
2019-04-13T22:48:15.896Z,99.90
2019-04-13T22:53:19.503Z,99.90
2019-04-13T22:58:21.075Z,99.90
2019-04-13T23:03:22.659Z,99.90
2019-04-13T23:08:24.843Z,99.90
2019-04-13T23:13:21.019Z,99.90
2019-04-13T23:18:16.823Z,99.90
2019-04-13T23:23:14.285Z,99.90
2019-04-13T23:28:29.183Z,99.90
2019-04-13T23:33:26.061Z,99.90
2019-04-13T23:38:20.281Z,99.90
2019-04-13T23:43:21.133Z,99.90
2019-04-13T23:48:13.272Z,99.90
2019-04-13T23:53:09.758Z,99.90
2019-04-13T23:58:17.788Z,99.90
